Time;durP1;ratioP1;P1;durP2;ratioP2;P2;SDS_P1;SDS_P2;PMS_P1;PMS_P2;Temp;Humidity;BMP_temperature;BMP_pressure;BME280_temperature;BME280_humidity;BME280_pressure;Samples;Min_cycle;Max_cycle;Signal;HPM_P1;HPM_P2
2023/07/01 00:02:15;;;;;;;11.40;4.60;;;17.60;99.90;;;;;;5070601;28;20506;-72
2023/07/01 00:04:41;;;;;;;11.52;4.72;;;17.60;99.90;;;;;;5059731;28;20033;-72
2023/07/01 00:07:07;;;;;;;14.85;5.22;;;17.60;99.90;;;;;;5054147;28;20384;-72
2023/07/01 00:09:32;;;;;;;14.57;6.18;;;17.50;99.90;;;;;;5059301;28;20036;-72
2023/07/01 00:11:58;;;;;;;11.55;5.40;;;17.50;99.90;;;;;;5054174;28;20020;-72
2023/07/01 00:14:24;;;;;;;12.60;5.65;;;17.50;99.90;;;;;;5062803;28;20028;-72
2023/07/01 00:16:50;;;;;;;8.98;5.43;;;17.50;99.90;;;;;;5060144;28;20441;-72
2023/07/01 00:19:15;;;;;;;10.70;5.53;;;17.50;99.90;;;;;;5051874;28;20013;-72
2023/07/01 00:21:41;;;;;;;11.57;5.35;;;17.50;99.90;;;;;;5051695;28;20092;-72
2023/07/01 00:24:07;;;;;;;12.82;5.60;;;17.40;99.90;;;;;;5051465;28;20057;-72
2023/07/01 00:26:33;;;;;;;11.38;5.57;;;17.40;99.90;;;;;;5051869;28;20103;-72
2023/07/01 00:28:58;;;;;;;8.40;5.10;;;17.40;99.90;;;;;;5052691;28;20515;-72
2023/07/01 00:31:24;;;;;;;11.95;5.45;;;17.40;99.90;;;;;;5054593;28;20021;-72
2023/07/01 00:33:49;;;;;;;9.30;4.80;;;17.30;99.90;;;;;;5066347;28;20012;-72
2023/07/01 00:36:15;;;;;;;12.90;5.22;;;17.30;99.90;;;;;;5069915;28;20062;-72
2023/07/01 00:38:41;;;;;;;14.00;5.47;;;17.30;99.90;;;;;;5058345;28;20028;-72
2023/07/01 00:41:06;;;;;;;9.88;5.63;;;17.30;99.90;;;;;;5068875;28;20649;-72
2023/07/01 00:43:32;;;;;;;11.23;5.97;;;17.30;99.90;;;;;;5053470;28;20035;-72
2023/07/01 00:45:57;;;;;;;15.82;6.60;;;17.20;99.90;;;;;;5058229;28;20067;-72
2023/07/01 00:48:25;;;;;;;11.88;6.07;;;17.20;99.90;;;;;;5058927;28;20029;-72
2023/07/01 00:50:52;;;;;;;11.80;6.57;;;17.20;99.90;;;;;;5055530;28;20026;-72
2023/07/01 00:53:18;;;;;;;15.30;6.72;;;17.20;99.90;;;;;;5053036;28;20485;-72
2023/07/01 00:55:44;;;;;;;12.00;6.82;;;17.10;99.90;;;;;;5058929;28;20066;-72
2023/07/01 00:58:10;;;;;;;16.00;6.82;;;17.10;99.90;;;;;;5058804;28;20403;-72
2023/07/01 01:00:36;;;;;;;12.55;6.90;;;17.20;99.90;;;;;;5067957;28;20021;-72
2023/07/01 01:03:21;;;;;;;15.07;6.75;;;17.10;99.90;;;;;;5055857;28;20025;-72
2023/07/01 01:05:56;;;;;;;14.43;6.90;;;17.10;99.90;;;;;;5071657;28;20025;-72
2023/07/01 01:08:31;;;;;;;10.02;6.30;;;17.10;99.90;;;;;;5057623;28;20024;-72
2023/07/01 01:10:59;;;;;;;12.65;6.90;;;17.10;99.90;;;;;;5060895;28;20035;-72
2023/07/01 01:13:28;;;;;;;12.55;7.38;;;17.10;99.90;;;;;;5052761;28;20025;-72
2023/07/01 01:15:55;;;;;;;13.88;7.50;;;17.10;99.90;;;;;;5071579;28;20364;-72
2023/07/01 01:18:22;;;;;;;13.75;7.43;;;17.10;99.90;;;;;;5062149;28;20480;-72
2023/07/01 01:20:50;;;;;;;14.52;8.70;;;17.10;99.90;;;;;;5067297;28;20051;-72
2023/07/01 01:23:26;;;;;;;16.30;8.80;;;17.20;99.90;;;;;;5069146;28;20068;-72
2023/07/01 01:26:06;;;;;;;16.25;7.85;;;17.20;99.90;;;;;;5051138;28;20041;-72
2023/07/01 01:28:34;;;;;;;15.32;7.50;;;17.20;99.90;;;;;;5055830;28;20048;-72
2023/07/01 01:30:59;;;;;;;13.20;7.80;;;17.30;99.90;;;;;;5069428;28;20052;-72
2023/07/01 01:33:25;;;;;;;16.00;8.27;;;17.30;99.90;;;;;;5067072;28;20059;-72
2023/07/01 01:35:53;;;;;;;16.35;7.95;;;17.30;99.90;;;;;;5062269;28;20025;-72
2023/07/01 01:38:21;;;;;;;15.43;7.80;;;17.30;99.90;;;;;;5051585;28;20078;-72
2023/07/01 01:40:59;;;;;;;12.82;8.75;;;17.30;99.90;;;;;;5065468;28;20431;-72
2023/07/01 01:43:36;;;;;;;14.57;8.45;;;17.30;99.90;;;;;;5050496;28;20082;-72
2023/07/01 01:46:02;;;;;;;10.98;7.53;;;17.30;99.90;;;;;;5062993;28;20029;-72
2023/07/01 01:48:29;;;;;;;12.35;7.90;;;17.30;99.90;;;;;;5050480;28;20025;-72
2023/07/01 01:50:56;;;;;;;11.00;7.30;;;17.30;99.90;;;;;;5063506;28;20021;-72
2023/07/01 01:53:24;;;;;;;11.80;8.38;;;17.30;99.90;;;;;;5054385;28;20024;-72
2023/07/01 01:55:50;;;;;;;13.40;7.40;;;17.30;99.90;;;;;;5069787;28;20448;-72
2023/07/01 01:58:16;;;;;;;10.63;7.15;;;17.30;99.90;;;;;;5066810;28;20022;-72
2023/07/01 02:00:44;;;;;;;11.18;7.43;;;17.30;99.90;;;;;;5071193;28;20024;-72
2023/07/01 02:03:10;;;;;;;13.05;8.38;;;17.20;99.90;;;;;;5063745;28;20025;-71
2023/07/01 02:05:36;;;;;;;13.82;8.48;;;17.20;99.90;;;;;;5054148;28;20648;-72
2023/07/01 02:08:03;;;;;;;15.65;10.82;;;17.20;99.90;;;;;;5057404;28;20063;-72
2023/07/01 02:10:29;;;;;;;15.68;11.45;;;17.20;99.90;;;;;;5050340;28;20024;-72
2023/07/01 02:12:54;;;;;;;16.17;10.60;;;17.10;99.90;;;;;;5051099;28;20421;-72
2023/07/01 02:15:20;;;;;;;17.10;11.38;;;17.20;99.90;;;;;;5065220;28;20029;-72
2023/07/01 02:17:46;;;;;;;18.00;11.75;;;17.10;99.90;;;;;;5050260;28;20025;-72
2023/07/01 02:20:12;;;;;;;15.48;11.02;;;17.10;99.90;;;;;;5066687;28;20629;-72
2023/07/01 02:22:38;;;;;;;15.75;10.85;;;17.20;99.90;;;;;;5057454;28;20045;-72
2023/07/01 02:25:04;;;;;;;14.63;10.60;;;17.20;99.90;;;;;;5052563;28;20029;-75
2023/07/01 02:27:31;;;;;;;14.18;10.93;;;17.20;99.90;;;;;;5057527;28;20025;-72
2023/07/01 02:29:57;;;;;;;14.02;10.93;;;17.30;99.90;;;;;;5063782;28;20027;-72
2023/07/01 02:32:23;;;;;;;18.77;10.68;;;17.30;99.90;;;;;;5050294;28;20021;-72
2023/07/01 02:34:49;;;;;;;15.68;10.35;;;17.30;99.90;;;;;;5067966;28;20032;-72
2023/07/01 02:37:15;;;;;;;15.73;10.18;;;17.30;99.90;;;;;;5063635;28;20017;-72
2023/07/01 02:39:42;;;;;;;15.02;9.77;;;17.30;99.90;;;;;;5061886;28;20025;-72
2023/07/01 02:42:08;;;;;;;14.63;10.30;;;17.30;99.90;;;;;;5054937;28;20387;-74
2023/07/01 02:44:33;;;;;;;12.60;10.43;;;17.30;99.90;;;;;;5057230;28;20025;-72
2023/07/01 02:47:00;;;;;;;13.73;9.02;;;17.20;99.90;;;;;;5056839;28;20363;-72
2023/07/01 02:49:25;;;;;;;15.95;10.05;;;17.20;99.90;;;;;;5058284;28;20048;-72
2023/07/01 02:51:51;;;;;;;12.38;9.48;;;17.20;99.90;;;;;;5061677;28;20102;-72
2023/07/01 02:54:17;;;;;;;14.27;9.05;;;17.20;99.90;;;;;;5058342;28;20025;-73
2023/07/01 02:56:42;;;;;;;11.80;9.13;;;17.20;99.90;;;;;;5053548;28;20147;-72
2023/07/01 02:59:08;;;;;;;14.80;8.85;;;17.20;99.90;;;;;;5056720;28;20025;-72
2023/07/01 03:01:34;;;;;;;15.30;8.90;;;17.20;99.90;;;;;;5064986;28;20028;-72
2023/07/01 03:03:59;;;;;;;14.65;8.82;;;17.20;99.90;;;;;;5058433;28;20101;-72
2023/07/01 03:06:25;;;;;;;14.27;9.25;;;17.20;99.90;;;;;;5052593;28;20464;-72
2023/07/01 03:08:51;;;;;;;14.07;10.13;;;17.20;99.90;;;;;;5066449;28;20020;-72
2023/07/01 03:11:16;;;;;;;16.45;10.20;;;17.20;99.90;;;;;;5053439;28;20306;-72
2023/07/01 03:13:42;;;;;;;13.05;9.65;;;17.10;99.90;;;;;;5053099;28;20022;-72
2023/07/01 03:16:09;;;;;;;11.75;9.32;;;17.10;99.90;;;;;;5070495;28;20013;-72
2023/07/01 03:18:35;;;;;;;10.90;9.75;;;17.10;99.90;;;;;;5070350;28;20028;-73
2023/07/01 03:21:01;;;;;;;17.05;10.50;;;17.10;99.90;;;;;;5065977;28;20017;-73
2023/07/01 03:23:27;;;;;;;14.48;10.35;;;17.10;99.90;;;;;;5053271;28;20488;-73
2023/07/01 03:25:53;;;;;;;14.30;10.20;;;17.10;99.90;;;;;;5064927;28;20082;-72
2023/07/01 03:28:19;;;;;;;13.52;10.18;;;17.10;99.90;;;;;;5054071;28;20021;-72
2023/07/01 03:30:44;;;;;;;11.52;10.20;;;17.20;99.90;;;;;;5053001;28;20094;-73
2023/07/01 03:33:12;;;;;;;12.98;10.35;;;17.10;99.90;;;;;;5065962;28;20472;-72
2023/07/01 03:35:38;;;;;;;12.57;10.30;;;17.10;99.90;;;;;;5066322;28;20020;-73
2023/07/01 03:38:04;;;;;;;12.13;9.57;;;17.10;99.90;;;;;;5072395;28;20023;-73
2023/07/01 03:40:30;;;;;;;10.55;9.45;;;17.10;99.90;;;;;;5065495;28;20025;-73
2023/07/01 03:42:56;;;;;;;14.65;10.48;;;17.20;99.90;;;;;;5055004;28;20021;-73
2023/07/01 03:45:22;;;;;;;11.65;10.07;;;17.20;99.90;;;;;;5067363;28;20081;-73
2023/07/01 03:47:48;;;;;;;12.70;10.00;;;17.20;99.90;;;;;;5067424;28;20039;-72
2023/07/01 03:50:14;;;;;;;11.25;9.80;;;17.20;99.90;;;;;;5055655;28;20035;-73
2023/07/01 03:52:41;;;;;;;10.88;9.60;;;17.20;99.90;;;;;;5060270;28;20013;-73
2023/07/01 03:55:11;;;;;;;13.13;10.52;;;17.20;99.90;;;;;;5055353;28;20035;-73
2023/07/01 03:57:37;;;;;;;14.50;11.05;;;17.20;99.90;;;;;;5059858;28;20021;-72
2023/07/01 04:00:08;;;;;;;14.13;11.35;;;17.20;99.90;;;;;;5063483;28;20021;-73
2023/07/01 04:02:37;;;;;;;13.00;11.45;;;17.20;99.90;;;;;;5056763;28;20013;-73
2023/07/01 04:05:09;;;;;;;15.00;10.48;;;17.20;99.90;;;;;;5052234;28;20029;-73
2023/07/01 04:07:36;;;;;;;12.80;10.52;;;17.20;99.90;;;;;;5060423;28;20100;-73
2023/07/01 04:10:05;;;;;;;14.25;10.85;;;17.20;99.90;;;;;;5056856;28;20041;-73
2023/07/01 04:12:34;;;;;;;11.70;10.50;;;17.20;99.90;;;;;;5057140;28;20017;-73
2023/07/01 04:15:09;;;;;;;12.40;10.05;;;17.20;99.90;;;;;;5062092;28;20628;-73
2023/07/01 04:17:36;;;;;;;12.43;9.85;;;17.20;99.90;;;;;;5065712;28;20013;-73
2023/07/01 04:20:04;;;;;;;12.88;10.52;;;17.20;99.90;;;;;;5053730;28;20025;-72
2023/07/01 04:22:30;;;;;;;12.38;10.40;;;17.20;99.90;;;;;;5069393;28;20193;-73
2023/07/01 04:24:55;;;;;;;11.80;10.30;;;17.20;99.90;;;;;;5072007;28;20049;-73
2023/07/01 04:27:21;;;;;;;12.57;10.15;;;17.30;99.90;;;;;;5052594;28;20092;-73
2023/07/01 04:29:47;;;;;;;12.63;10.25;;;17.30;99.90;;;;;;5054966;28;20074;-73
2023/07/01 04:32:12;;;;;;;13.38;10.70;;;17.30;99.90;;;;;;5070418;28;20535;-73
2023/07/01 04:34:38;;;;;;;12.50;10.48;;;17.40;99.90;;;;;;5067801;28;20124;-73
2023/07/01 04:37:03;;;;;;;13.50;11.02;;;17.30;99.90;;;;;;5055471;28;20036;-74
2023/07/01 04:39:29;;;;;;;13.70;10.48;;;17.40;99.90;;;;;;5056023;28;20099;-72
2023/07/01 04:41:55;;;;;;;13.30;10.13;;;17.40;99.90;;;;;;5065194;28;20021;-73
2023/07/01 04:44:23;;;;;;;13.13;10.82;;;17.40;99.90;;;;;;5068870;28;20053;-73
2023/07/01 04:46:50;;;;;;;11.65;9.65;;;17.30;99.90;;;;;;5058143;28;20048;-73
2023/07/01 04:49:16;;;;;;;12.57;10.07;;;17.30;99.90;;;;;;5056354;28;20472;-73
2023/07/01 04:51:42;;;;;;;14.57;10.57;;;17.30;99.90;;;;;;5065569;28;20040;-72
2023/07/01 04:54:07;;;;;;;11.18;9.68;;;17.30;99.90;;;;;;5051110;28;20021;-73
2023/07/01 04:56:33;;;;;;;13.80;10.57;;;17.30;99.90;;;;;;5052074;28;20037;-73
2023/07/01 04:59:00;;;;;;;16.65;10.52;;;17.30;99.90;;;;;;5056999;28;20048;-73
2023/07/01 05:01:26;;;;;;;11.55;10.18;;;17.30;99.90;;;;;;5055505;28;20487;-73
2023/07/01 05:03:52;;;;;;;13.45;9.60;;;17.30;99.90;;;;;;5068096;28;20035;-73
2023/07/01 05:06:17;;;;;;;13.15;9.85;;;17.30;99.90;;;;;;5070289;28;20017;-72
2023/07/01 05:08:44;;;;;;;14.32;10.90;;;17.40;99.90;;;;;;5053482;28;20044;-73
2023/07/01 05:11:09;;;;;;;14.57;10.13;;;17.30;99.90;;;;;;5051630;28;20673;-73
2023/07/01 05:13:35;;;;;;;12.50;10.80;;;17.30;99.90;;;;;;5066202;28;20048;-73
2023/07/01 05:16:01;;;;;;;13.63;10.30;;;17.30;99.90;;;;;;5069231;28;20056;-72
2023/07/01 05:18:26;;;;;;;14.02;10.65;;;17.40;99.90;;;;;;5067525;28;20027;-73
2023/07/01 05:20:52;;;;;;;13.82;10.50;;;17.40;99.90;;;;;;5051258;28;20025;-73
2023/07/01 05:23:17;;;;;;;10.93;9.07;;;17.40;99.90;;;;;;5059095;28;20492;-72
2023/07/01 05:25:43;;;;;;;11.15;9.52;;;17.40;99.90;;;;;;5051026;28;20116;-73
2023/07/01 05:28:10;;;;;;;10.98;8.68;;;17.40;99.90;;;;;;5067760;28;20059;-72
2023/07/01 05:30:36;;;;;;;11.48;9.10;;;17.40;99.90;;;;;;5069544;28;20024;-73
2023/07/01 05:33:02;;;;;;;12.40;9.00;;;17.40;99.90;;;;;;5055594;28;20071;-73
2023/07/01 05:35:28;;;;;;;10.40;8.77;;;17.40;99.90;;;;;;5062666;28;20111;-73
2023/07/01 05:37:54;;;;;;;12.85;8.93;;;17.40;99.90;;;;;;5060548;28;20019;-73
2023/07/01 05:40:20;;;;;;;10.70;8.88;;;17.40;99.90;;;;;;5066879;28;20627;-73
2023/07/01 05:42:46;;;;;;;13.48;9.13;;;17.50;99.90;;;;;;5058742;28;20024;-73
2023/07/01 05:45:12;;;;;;;11.30;9.25;;;17.50;99.90;;;;;;5059330;28;20090;-73
2023/07/01 05:47:38;;;;;;;12.73;9.65;;;17.50;99.90;;;;;;5058774;28;20025;-73
2023/07/01 05:50:05;;;;;;;11.00;8.95;;;17.50;99.90;;;;;;5050521;28;20395;-73
2023/07/01 05:52:30;;;;;;;12.13;9.27;;;17.50;99.90;;;;;;5052237;28;20052;-73
2023/07/01 05:54:56;;;;;;;12.30;9.13;;;17.50;99.90;;;;;;5050986;28;20071;-73
2023/07/01 05:57:22;;;;;;;11.95;8.45;;;17.50;99.90;;;;;;5056300;28;20024;-73
2023/07/01 05:59:48;;;;;;;10.82;8.93;;;17.50;99.90;;;;;;5055535;28;20456;-73
2023/07/01 06:02:14;;;;;;;11.80;9.07;;;17.50;99.90;;;;;;5053711;28;20128;-73
2023/07/01 06:04:40;;;;;;;10.60;8.63;;;17.60;99.90;;;;;;5052288;28;20535;-73
2023/07/01 06:07:05;;;;;;;11.95;9.32;;;17.60;99.90;;;;;;5055922;28;20074;-74
2023/07/01 06:09:31;;;;;;;15.10;9.80;;;17.60;99.90;;;;;;5059175;28;20025;-74
2023/07/01 06:11:57;;;;;;;14.73;9.70;;;17.60;99.90;;;;;;5052435;28;20433;-74
2023/07/01 06:14:22;;;;;;;13.35;9.82;;;17.60;99.90;;;;;;5055767;28;20082;-73
2023/07/01 06:16:48;;;;;;;13.38;10.20;;;17.60;99.90;;;;;;5055730;28;20451;-73
2023/07/01 06:19:13;;;;;;;13.90;9.85;;;17.60;99.90;;;;;;5054509;28;20017;-73
2023/07/01 06:21:39;;;;;;;14.52;11.00;;;17.60;99.90;;;;;;5055840;28;20025;-73
2023/07/01 06:24:05;;;;;;;14.55;10.13;;;17.60;99.90;;;;;;5059707;28;20044;-73
2023/07/01 06:26:31;;;;;;;14.40;9.52;;;17.70;99.90;;;;;;5057794;28;20387;-73
2023/07/01 06:28:56;;;;;;;16.35;9.70;;;17.70;99.90;;;;;;5064647;28;20021;-73
2023/07/01 06:31:22;;;;;;;12.20;9.57;;;17.70;99.90;;;;;;5068636;28;20091;-73
2023/07/01 06:33:48;;;;;;;11.73;8.95;;;17.70;99.90;;;;;;5065529;28;20017;-73
2023/07/01 06:36:17;;;;;;;11.35;8.63;;;17.70;99.90;;;;;;5054363;28;20021;-73
2023/07/01 06:38:43;;;;;;;12.43;9.07;;;17.80;99.90;;;;;;5066397;28;20023;-74
2023/07/01 06:41:08;;;;;;;11.57;8.45;;;17.80;99.90;;;;;;5067507;28;20025;-73
2023/07/01 06:43:38;;;;;;;10.90;8.30;;;17.80;99.90;;;;;;5054043;28;20128;-73
2023/07/01 06:46:03;;;;;;;10.68;8.05;;;17.90;99.90;;;;;;5061695;28;20024;-73
2023/07/01 06:48:29;;;;;;;12.02;9.55;;;17.90;99.90;;;;;;5070279;28;20098;-73
2023/07/01 06:50:55;;;;;;;13.20;9.40;;;17.90;99.90;;;;;;5060819;28;20096;-73
2023/07/01 06:53:21;;;;;;;12.73;8.85;;;17.90;99.90;;;;;;5061197;28;20052;-74
2023/07/01 06:55:47;;;;;;;12.13;9.43;;;18.00;99.90;;;;;;5063656;28;20682;-73
2023/07/01 06:58:12;;;;;;;11.48;9.35;;;18.00;99.90;;;;;;5071179;28;20020;-74
2023/07/01 07:00:39;;;;;;;9.70;8.27;;;18.00;99.90;;;;;;5073670;28;20610;-74
2023/07/01 07:03:04;;;;;;;11.43;8.52;;;18.00;99.90;;;;;;5069458;28;20043;-74
2023/07/01 07:05:32;;;;;;;10.43;7.93;;;18.00;99.90;;;;;;5053096;28;20028;-74
2023/07/01 07:07:58;;;;;;;10.38;7.60;;;18.10;99.90;;;;;;5070958;28;20483;-74
2023/07/01 07:10:24;;;;;;;12.38;8.18;;;18.10;99.90;;;;;;5072913;28;20078;-74
2023/07/01 07:12:49;;;;;;;8.07;6.78;;;18.10;99.90;;;;;;5072508;28;20082;-74
2023/07/01 07:15:15;;;;;;;9.15;7.22;;;18.10;99.90;;;;;;5059961;28;20392;-74
2023/07/01 07:17:40;;;;;;;8.30;6.70;;;18.10;99.90;;;;;;5058989;28;20025;-73
2023/07/01 07:20:07;;;;;;;6.72;6.03;;;18.10;99.90;;;;;;5052323;28;20469;-73
2023/07/01 07:22:32;;;;;;;7.00;6.00;;;18.10;99.90;;;;;;5064704;28;20041;-73
2023/07/01 07:24:59;;;;;;;7.18;5.63;;;18.20;99.90;;;;;;5073812;28;20649;-74
2023/07/01 07:27:25;;;;;;;7.40;6.10;;;18.20;99.90;;;;;;5055652;28;20025;-73
2023/07/01 07:29:50;;;;;;;7.88;6.57;;;18.20;99.90;;;;;;5066832;28;20066;-74
2023/07/01 07:32:16;;;;;;;7.07;6.38;;;18.20;99.90;;;;;;5053642;28;20100;-73
2023/07/01 07:34:42;;;;;;;8.68;6.57;;;18.20;99.90;;;;;;5065593;28;20036;-74
2023/07/01 07:37:07;;;;;;;7.70;6.88;;;18.30;99.90;;;;;;5072505;28;20515;-73
2023/07/01 07:39:33;;;;;;;8.40;6.97;;;18.30;99.90;;;;;;5058716;28;20127;-73
2023/07/01 07:41:59;;;;;;;8.55;7.55;;;18.30;99.90;;;;;;5064848;28;20483;-73
2023/07/01 07:44:25;;;;;;;8.25;7.30;;;18.30;99.90;;;;;;5061163;28;20047;-73
2023/07/01 07:46:50;;;;;;;7.18;6.47;;;18.30;99.90;;;;;;5053788;28;20025;-73
2023/07/01 07:49:16;;;;;;;7.07;6.38;;;18.40;99.90;;;;;;5065983;28;20021;-73
2023/07/01 07:51:42;;;;;;;7.53;6.50;;;18.40;99.90;;;;;;5058922;28;20403;-73
2023/07/01 07:54:08;;;;;;;8.35;7.32;;;18.40;99.90;;;;;;5063187;28;20030;-73
2023/07/01 07:56:34;;;;;;;8.40;7.18;;;18.40;99.90;;;;;;5068790;28;20112;-72
2023/07/01 07:58:59;;;;;;;7.88;7.07;;;18.40;99.90;;;;;;5056147;28;20021;-73
2023/07/01 08:01:25;;;;;;;7.53;6.82;;;18.50;99.90;;;;;;5067066;28;20455;-73
2023/07/01 08:03:50;;;;;;;7.93;7.10;;;18.50;99.90;;;;;;5064523;28;20027;-73
2023/07/01 08:06:17;;;;;;;7.60;6.90;;;18.50;99.90;;;;;;5068812;28;20055;-73
2023/07/01 08:08:43;;;;;;;6.85;5.90;;;18.60;99.90;;;;;;5063284;28;20029;-72
2023/07/01 08:11:08;;;;;;;4.95;4.45;;;18.60;99.90;;;;;;5059798;28;20010;-72
2023/07/01 08:13:34;;;;;;;4.90;3.88;;;18.60;99.90;;;;;;5059178;28;20025;-72
2023/07/01 08:16:00;;;;;;;3.17;2.75;;;18.60;99.90;;;;;;5066329;28;20032;-73
2023/07/01 08:18:25;;;;;;;2.67;2.10;;;18.60;99.90;;;;;;5072289;28;20151;-73
2023/07/01 08:20:51;;;;;;;1.75;1.65;;;18.70;99.90;;;;;;5065978;28;20040;-72
2023/07/01 08:23:17;;;;;;;1.73;1.27;;;18.70;99.90;;;;;;5063006;28;20458;-72
2023/07/01 08:25:43;;;;;;;1.30;1.00;;;18.70;99.90;;;;;;5071022;28;20463;-73
2023/07/01 08:28:09;;;;;;;2.03;1.00;;;18.60;99.90;;;;;;5065135;28;20033;-72
2023/07/01 08:30:35;;;;;;;3.33;1.10;;;18.60;99.90;;;;;;5052820;28;20036;-73
2023/07/01 08:33:01;;;;;;;2.63;1.10;;;18.60;99.90;;;;;;5063550;28;20021;-72
2023/07/01 08:35:28;;;;;;;2.55;1.20;;;18.70;99.90;;;;;;5069140;28;20027;-72
2023/07/01 08:37:53;;;;;;;2.97;1.20;;;18.70;99.90;;;;;;5058732;28;20021;-72
2023/07/01 08:40:19;;;;;;;2.03;1.52;;;18.70;99.90;;;;;;5064757;28;20441;-72
2023/07/01 08:42:49;;;;;;;2.10;1.83;;;18.70;99.90;;;;;;5060756;28;20552;-72
2023/07/01 08:45:15;;;;;;;3.08;2.13;;;18.70;99.90;;;;;;5050403;28;20538;-72
2023/07/01 08:47:41;;;;;;;3.42;2.30;;;18.80;99.90;;;;;;5051661;28;20025;-72
2023/07/01 08:50:09;;;;;;;3.60;2.53;;;18.80;99.90;;;;;;5055826;28;20020;-72
2023/07/01 08:52:46;;;;;;;4.72;2.40;;;18.80;99.90;;;;;;5055468;28;20029;-72
2023/07/01 08:55:12;;;;;;;3.17;2.40;;;18.80;99.90;;;;;;5051191;28;20029;-72
2023/07/01 08:57:41;;;;;;;4.97;2.78;;;18.70;99.90;;;;;;5050656;28;20035;-72
2023/07/01 09:00:12;;;;;;;6.05;3.08;;;18.70;99.90;;;;;;5065639;28;20044;-72
2023/07/01 09:02:39;;;;;;;8.73;3.13;;;18.70;99.90;;;;;;5064567;28;20052;-72
2023/07/01 09:05:05;;;;;;;4.53;3.03;;;18.70;99.90;;;;;;5051415;28;20468;-72
2023/07/01 09:07:31;;;;;;;5.85;3.20;;;18.80;99.90;;;;;;5052299;28;20380;-71
2023/07/01 09:09:57;;;;;;;6.63;3.42;;;18.80;99.90;;;;;;5054405;28;20024;-71
2023/07/01 09:12:27;;;;;;;7.53;3.95;;;18.90;99.90;;;;;;5051643;28;20021;-72
2023/07/01 09:15:03;;;;;;;5.90;4.40;;;18.90;99.90;;;;;;5060467;28;20021;-71
2023/07/01 09:17:34;;;;;;;9.98;5.47;;;18.90;99.90;;;;;;5057069;28;20100;-72
2023/07/01 09:20:04;;;;;;;10.55;6.22;;;18.90;99.90;;;;;;5061107;28;20025;-72
2023/07/01 09:22:30;;;;;;;15.55;6.82;;;18.90;99.90;;;;;;5057076;28;20044;-71
2023/07/01 09:24:56;;;;;;;14.70;7.07;;;18.90;99.90;;;;;;5062337;28;20075;-72
2023/07/01 09:27:22;;;;;;;14.65;7.57;;;18.80;99.90;;;;;;5056505;28;20095;-72
2023/07/01 09:29:48;;;;;;;10.50;7.22;;;18.80;99.90;;;;;;5051223;28;20021;-72
2023/07/01 09:32:31;;;;;;;13.20;7.40;;;18.90;99.90;;;;;;5049176;28;20017;-72
2023/07/01 09:34:57;;;;;;;14.43;8.05;;;18.90;99.90;;;;;;5062621;28;20024;-72
2023/07/01 09:37:26;;;;;;;11.13;7.63;;;18.90;99.90;;;;;;5050926;28;20095;-72
2023/07/01 09:39:52;;;;;;;13.65;7.32;;;18.90;99.90;;;;;;5052116;28;20035;-72
2023/07/01 09:42:18;;;;;;;10.75;7.28;;;18.90;99.90;;;;;;5056975;28;20468;-72
2023/07/01 09:45:19;;;;;;;11.27;7.60;;;18.90;99.90;;;;;;5062016;28;20399;-74
2023/07/01 09:47:52;;;;;;;14.68;7.00;;;19.00;99.90;;;;;;5062535;28;20049;-72
2023/07/01 09:50:26;;;;;;;12.02;6.55;;;19.00;99.90;;;;;;5062993;28;20037;-72
2023/07/01 09:52:52;;;;;;;10.57;6.90;;;19.00;99.90;;;;;;5060829;28;20075;-72
2023/07/01 09:55:18;;;;;;;13.63;6.55;;;19.00;99.90;;;;;;5055215;28;20025;-72
2023/07/01 09:57:44;;;;;;;13.07;6.63;;;19.00;99.90;;;;;;5063004;28;20383;-72
2023/07/01 10:00:15;;;;;;;14.07;6.85;;;19.00;99.90;;;;;;5056728;28;20025;-73
2023/07/01 10:02:47;;;;;;;16.75;6.30;;;19.00;99.90;;;;;;5067992;28;20078;-72
2023/07/01 10:05:13;;;;;;;11.90;6.40;;;19.00;99.90;;;;;;5063752;28;20078;-72
2023/07/01 10:07:44;;;;;;;10.70;6.38;;;19.00;99.90;;;;;;5073381;28;20024;-72
2023/07/01 10:10:11;;;;;;;13.15;6.38;;;19.00;99.90;;;;;;5059339;28;20140;-72
2023/07/01 10:12:40;;;;;;;13.30;6.38;;;19.00;99.90;;;;;;5066278;28;20078;-72
2023/07/01 10:15:09;;;;;;;13.73;6.22;;;19.00;99.90;;;;;;5054339;28;20021;-72
2023/07/01 10:17:48;;;;;;;13.55;6.47;;;19.00;99.90;;;;;;5058059;28;20013;-72
2023/07/01 10:20:28;;;;;;;13.65;6.38;;;19.00;99.90;;;;;;5064672;28;20028;-72
2023/07/01 10:22:58;;;;;;;12.88;7.07;;;19.00;99.90;;;;;;5068897;28;20484;-72
2023/07/01 10:25:36;;;;;;;16.35;6.93;;;19.00;99.90;;;;;;5066066;28;20013;-72
2023/07/01 10:28:08;;;;;;;14.88;6.35;;;19.10;99.90;;;;;;5059440;28;20017;-72
2023/07/01 10:30:45;;;;;;;11.80;6.07;;;19.10;99.90;;;;;;5054526;28;20025;-72
2023/07/01 10:33:39;;;;;;;13.40;6.25;;;19.20;99.90;;;;;;5055499;28;20040;-72
2023/07/01 10:36:17;;;;;;;11.48;5.10;;;19.20;99.90;;;;;;5056322;28;20059;-72
2023/07/01 10:38:43;;;;;;;13.15;5.50;;;19.30;99.90;;;;;;5062170;28;20112;-72
2023/07/01 10:41:09;;;;;;;14.55;5.43;;;19.30;99.90;;;;;;5064846;28;20021;-72
2023/07/01 10:43:39;;;;;;;10.13;5.07;;;19.40;99.90;;;;;;5063816;28;20032;-73
2023/07/01 10:46:24;;;;;;;10.02;5.15;;;19.40;99.90;;;;;;5064754;28;20523;-73
2023/07/01 10:49:02;;;;;;;13.67;5.17;;;19.50;99.90;;;;;;5065453;28;20043;-72
2023/07/01 10:51:31;;;;;;;8.38;4.85;;;19.50;99.90;;;;;;5060265;28;20021;-73
2023/07/01 10:54:02;;;;;;;12.32;5.47;;;19.60;99.90;;;;;;5054417;28;20024;-72
2023/07/01 10:56:35;;;;;;;11.70;5.32;;;19.60;99.90;;;;;;5057100;28;20025;-72
2023/07/01 10:59:26;;;;;;;8.70;5.15;;;19.60;99.90;;;;;;5053841;28;20115;-73
2023/07/01 11:01:56;;;;;;;10.70;5.32;;;19.60;99.90;;;;;;5053897;28;20021;-72
2023/07/01 11:04:42;;;;;;;10.63;4.80;;;19.60;99.90;;;;;;5062641;28;20016;-73
2023/07/01 11:07:09;;;;;;;10.73;5.20;;;19.60;99.90;;;;;;5060344;28;20478;-72
2023/07/01 11:09:34;;;;;;;10.52;5.15;;;19.60;99.90;;;;;;5061205;28;20118;-77
2023/07/01 11:12:06;;;;;;;12.48;5.60;;;19.60;99.90;;;;;;5064305;28;20476;-73
2023/07/01 11:14:38;;;;;;;9.60;5.07;;;19.70;99.90;;;;;;5062849;28;20028;-74
2023/07/01 11:17:10;;;;;;;11.18;4.80;;;19.70;99.90;;;;;;5068360;28;20155;-73
2023/07/01 11:19:36;;;;;;;10.38;5.00;;;19.80;99.90;;;;;;5058691;28;20024;-73
2023/07/01 11:22:02;;;;;;;9.77;4.97;;;19.90;99.90;;;;;;5054212;28;20044;-73
2023/07/01 11:24:29;;;;;;;9.40;4.40;;;20.00;99.90;;;;;;5067342;28;20505;-74
2023/07/01 11:27:04;;;;;;;7.10;4.38;;;20.00;99.90;;;;;;5070032;28;20104;-73
2023/07/01 11:29:30;;;;;;;8.70;4.40;;;20.10;99.90;;;;;;5061639;28;20363;-72
2023/07/01 11:31:58;;;;;;;9.38;4.70;;;20.10;99.90;;;;;;5060401;28;20028;-73
2023/07/01 11:34:24;;;;;;;6.40;4.18;;;20.30;99.90;;;;;;5054126;28;20118;-73
2023/07/01 11:36:49;;;;;;;8.77;4.70;;;20.40;99.90;;;;;;5052392;28;20108;-72
2023/07/01 11:39:17;;;;;;;8.85;4.05;;;20.50;99.90;;;;;;5055044;28;20459;-72
2023/07/01 11:41:46;;;;;;;9.00;4.13;;;20.50;99.90;;;;;;5056549;28;20555;-73
2023/07/01 11:44:14;;;;;;;7.03;4.13;;;20.70;99.90;;;;;;5066355;28;20403;-73
2023/07/01 11:46:42;;;;;;;9.90;4.30;;;20.70;99.90;;;;;;5065658;28;20071;-73
2023/07/01 11:49:29;;;;;;;10.85;3.75;;;20.70;99.90;;;;;;5067447;28;20074;-73
2023/07/01 11:51:56;;;;;;;8.70;2.88;;;20.70;99.90;;;;;;5063351;28;20024;-73
2023/07/01 11:54:24;;;;;;;10.82;3.40;;;20.70;99.90;;;;;;5063500;28;20017;-73
2023/07/01 11:57:12;;;;;;;9.40;3.42;;;20.60;99.90;;;;;;5055827;28;20017;-73
2023/07/01 11:59:39;;;;;;;11.30;3.22;;;20.60;99.90;;;;;;5064812;28;20050;-72
2023/07/01 12:02:05;;;;;;;9.90;3.17;;;20.50;99.90;;;;;;5053656;28;20024;-72
2023/07/01 12:04:33;;;;;;;6.65;2.95;;;20.40;99.90;;;;;;5067709;28;20036;-72
2023/07/01 12:07:06;;;;;;;6.35;3.03;;;20.30;99.90;;;;;;5065233;28;20029;-72
2023/07/01 12:09:32;;;;;;;6.10;3.13;;;20.20;99.90;;;;;;5052132;28;20503;-73
2023/07/01 12:11:58;;;;;;;8.18;3.10;;;20.10;99.90;;;;;;5059393;28;20044;-72
2023/07/01 12:14:25;;;;;;;6.85;3.40;;;20.10;99.90;;;;;;5060009;28;20109;-72
2023/07/01 12:16:51;;;;;;;8.00;2.90;;;20.10;99.90;;;;;;5057271;28;20031;-72
2023/07/01 12:19:18;;;;;;;8.10;2.83;;;20.20;99.90;;;;;;5062670;28;20023;-72
2023/07/01 12:21:44;;;;;;;5.82;2.67;;;20.30;99.90;;;;;;5067022;28;20020;-72
2023/07/01 12:24:24;;;;;;;7.47;2.90;;;20.40;99.90;;;;;;5061716;28;20044;-72
2023/07/01 12:26:54;;;;;;;6.93;3.78;;;20.50;99.90;;;;;;5067477;28;20027;-72
2023/07/01 12:29:21;;;;;;;7.65;4.25;;;20.60;99.90;;;;;;5053161;28;20023;-74
2023/07/01 12:31:47;;;;;;;6.63;4.47;;;20.60;99.90;;;;;;5057361;28;20066;-72
2023/07/01 12:34:14;;;;;;;8.75;3.97;;;20.60;99.90;;;;;;5058429;28;20020;-72
2023/07/01 12:36:42;;;;;;;7.68;4.10;;;20.60;99.90;;;;;;5062211;28;20032;-74
2023/07/01 12:39:08;;;;;;;9.48;4.30;;;20.60;99.90;;;;;;5053388;28;20017;-72
2023/07/01 12:41:37;;;;;;;6.20;4.10;;;20.70;99.90;;;;;;5053220;28;20025;-72